createdAt,value
2019-06-26T00:00:18.886Z,86.10
2019-06-26T00:03:07.795Z,85.80
2019-06-26T00:05:37.275Z,86.20
2019-06-26T00:08:06.842Z,91.00
2019-06-26T00:10:36.489Z,86.50
2019-06-26T00:13:05.975Z,86.60
2019-06-26T00:15:35.503Z,87.00
2019-06-26T00:18:05.257Z,87.00
2019-06-26T00:20:34.746Z,86.30
2019-06-26T00:23:04.232Z,89.00
2019-06-26T00:25:34.080Z,88.90
2019-06-26T00:28:03.552Z,89.00
2019-06-26T00:30:33.014Z,88.90
2019-06-26T00:33:02.479Z,86.80
2019-06-26T00:35:32.004Z,88.70
2019-06-26T00:38:01.538Z,88.70
2019-06-26T00:40:30.993Z,90.80
2019-06-26T00:43:00.459Z,89.20
2019-06-26T00:45:29.898Z,92.30
2019-06-26T00:47:59.355Z,92.70
2019-06-26T00:50:28.895Z,89.80
2019-06-26T00:52:58.417Z,89.80
2019-06-26T00:55:27.914Z,89.20
2019-06-26T00:57:57.383Z,89.40
2019-06-26T01:00:49.408Z,89.10
2019-06-26T01:03:18.861Z,89.70
2019-06-26T01:05:48.562Z,89.30
2019-06-26T01:08:18.049Z,90.20
2019-06-26T01:10:47.474Z,90.10
2019-06-26T01:13:23.565Z,90.80
2019-06-26T01:15:53.096Z,90.50
2019-06-26T01:18:22.585Z,90.30
2019-06-26T01:20:52.039Z,90.70
2019-06-26T01:23:21.523Z,90.30
2019-06-26T01:26:10.391Z,90.20
2019-06-26T01:28:39.944Z,90.80
2019-06-26T01:31:09.397Z,91.20
2019-06-26T01:33:38.882Z,91.40
2019-06-26T01:36:08.316Z,91.60
2019-06-26T01:38:37.800Z,91.60
2019-06-26T01:41:07.256Z,91.10
2019-06-26T01:43:36.724Z,91.10
2019-06-26T01:46:06.199Z,91.80
2019-06-26T01:48:35.714Z,91.50
2019-06-26T01:51:05.350Z,91.70
2019-06-26T01:53:34.806Z,92.30
2019-06-26T01:56:04.364Z,91.90
2019-06-26T01:58:33.821Z,91.30
2019-06-26T02:01:03.414Z,91.20
2019-06-26T02:03:32.861Z,91.80
2019-06-26T02:06:02.349Z,91.60
2019-06-26T02:08:31.857Z,91.60
2019-06-26T02:11:01.399Z,91.70
2019-06-26T02:13:30.861Z,91.30
2019-06-26T02:16:00.394Z,91.70
2019-06-26T02:18:34.562Z,91.60
2019-06-26T02:21:04.354Z,91.40
2019-06-26T02:23:33.854Z,91.80
2019-06-26T02:26:03.351Z,91.70
2019-06-26T02:28:32.806Z,92.60
2019-06-26T02:31:02.254Z,93.20
2019-06-26T02:33:31.703Z,91.90
2019-06-26T02:36:01.209Z,92.00
2019-06-26T02:38:30.668Z,92.00
2019-06-26T02:41:00.302Z,92.40
2019-06-26T02:43:29.920Z,92.00
2019-06-26T02:45:59.349Z,93.30
2019-06-26T02:48:28.845Z,92.60
2019-06-26T02:50:58.278Z,92.40
2019-06-26T02:53:27.816Z,92.30
2019-06-26T02:55:57.384Z,93.10
2019-06-26T02:58:26.882Z,92.60
2019-06-26T03:00:56.441Z,92.50
2019-06-26T03:03:25.914Z,93.00
2019-06-26T03:05:55.442Z,93.00
2019-06-26T03:08:25.099Z,93.00
2019-06-26T03:10:54.591Z,94.00
2019-06-26T03:13:24.414Z,93.80
2019-06-26T03:15:53.870Z,93.80
2019-06-26T03:18:23.412Z,94.60
2019-06-26T03:20:57.426Z,93.90
2019-06-26T03:23:26.946Z,94.60
2019-06-26T03:25:56.469Z,94.20
2019-06-26T03:28:26.077Z,94.70
2019-06-26T03:30:55.505Z,95.20
2019-06-26T03:33:24.986Z,95.10
2019-06-26T03:35:54.508Z,94.50
2019-06-26T03:38:23.960Z,94.70
2019-06-26T03:40:53.514Z,95.30
2019-06-26T03:43:22.990Z,96.00
2019-06-26T03:45:52.530Z,96.40
2019-06-26T03:48:22.006Z,95.90
2019-06-26T03:50:51.450Z,96.00
2019-06-26T03:53:20.910Z,95.60
2019-06-26T03:55:50.417Z,95.90
2019-06-26T03:58:19.899Z,97.30
2019-06-26T04:00:49.359Z,96.00
2019-06-26T04:03:18.827Z,96.00
2019-06-26T04:05:48.281Z,96.60
2019-06-26T04:08:17.740Z,96.40
2019-06-26T04:10:47.207Z,96.20
2019-06-26T04:13:16.690Z,96.00
2019-06-26T04:15:46.172Z,96.50
2019-06-26T04:18:15.636Z,96.60
2019-06-26T04:20:45.132Z,97.20
2019-06-26T04:23:14.566Z,97.40
2019-06-26T04:25:44.058Z,96.80
2019-06-26T04:28:13.508Z,97.30
2019-06-26T04:30:43.058Z,96.70
2019-06-26T04:33:12.496Z,96.80
2019-06-26T04:35:41.978Z,97.20
2019-06-26T04:38:11.494Z,98.10
2019-06-26T04:40:41.056Z,97.40
2019-06-26T04:43:10.510Z,97.30
2019-06-26T04:45:40.049Z,98.70
2019-06-26T04:48:09.561Z,97.30
2019-06-26T04:50:39.141Z,98.90
2019-06-26T04:53:08.597Z,97.20
2019-06-26T04:55:38.185Z,97.60
2019-06-26T04:58:07.632Z,96.20
2019-06-26T05:00:37.103Z,97.40
2019-06-26T05:03:06.563Z,98.80
2019-06-26T05:05:40.013Z,97.30
2019-06-26T05:08:07.297Z,99.00
2019-06-26T05:10:36.782Z,98.00
2019-06-26T05:13:06.360Z,97.10
2019-06-26T05:15:35.816Z,98.30
2019-06-26T05:18:05.385Z,98.40
2019-06-26T05:20:34.851Z,97.20
2019-06-26T05:23:04.406Z,97.80
2019-06-26T05:25:33.969Z,96.90
2019-06-26T05:28:03.435Z,99.20
2019-06-26T05:30:32.958Z,98.30
2019-06-26T05:33:02.523Z,98.90
2019-06-26T05:35:34.881Z,99.00
2019-06-26T05:38:03.188Z,98.30
2019-06-26T05:40:34.161Z,98.70
2019-06-26T05:43:03.659Z,97.90
2019-06-26T05:45:33.087Z,98.00
2019-06-26T05:48:02.782Z,98.40
2019-06-26T05:50:32.406Z,98.10
2019-06-26T05:53:01.882Z,98.20
2019-06-26T05:55:31.313Z,97.60
2019-06-26T05:58:00.801Z,98.50
2019-06-26T06:00:30.290Z,97.20
2019-06-26T06:02:59.725Z,98.30
2019-06-26T06:05:29.329Z,98.00
2019-06-26T06:07:58.829Z,97.90
2019-06-26T06:10:28.307Z,98.10
2019-06-26T06:12:57.763Z,98.00
2019-06-26T06:15:27.222Z,97.80
2019-06-26T06:17:56.745Z,98.00
2019-06-26T06:20:33.380Z,97.40
2019-06-26T06:23:02.866Z,97.50
2019-06-26T06:25:32.320Z,97.50
2019-06-26T06:28:01.865Z,97.50
2019-06-26T06:30:32.455Z,97.50
2019-06-26T06:33:01.986Z,96.80
2019-06-26T06:35:31.530Z,96.60
2019-06-26T06:38:01.178Z,95.60
2019-06-26T06:40:30.811Z,96.30
2019-06-26T06:43:00.305Z,96.70
2019-06-26T06:45:30.180Z,96.90
2019-06-26T06:47:59.657Z,96.50
2019-06-26T06:50:29.120Z,95.80
2019-06-26T06:52:58.602Z,95.40
2019-06-26T06:55:28.185Z,95.90
2019-06-26T06:57:57.670Z,96.20
2019-06-26T07:00:28.213Z,95.90
2019-06-26T07:02:57.771Z,96.40
2019-06-26T07:05:27.270Z,95.80
2019-06-26T07:07:56.773Z,95.70
2019-06-26T07:10:26.242Z,94.90
2019-06-26T07:12:55.727Z,95.50
2019-06-26T07:15:25.417Z,95.40
2019-06-26T07:17:55.320Z,95.40
2019-06-26T07:20:24.942Z,95.10
2019-06-26T07:22:54.377Z,95.10
2019-06-26T07:25:23.939Z,95.20
2019-06-26T07:27:53.457Z,94.90
2019-06-26T07:30:24.241Z,95.20
2019-06-26T07:32:53.707Z,94.60
2019-06-26T07:35:23.193Z,94.20
2019-06-26T07:37:52.675Z,94.50
2019-06-26T07:40:22.388Z,94.50
2019-06-26T07:42:51.841Z,94.40
2019-06-26T07:45:24.000Z,94.60
2019-06-26T07:47:52.643Z,94.00
2019-06-26T07:50:22.269Z,93.30
2019-06-26T07:52:51.823Z,93.00
2019-06-26T07:55:21.399Z,93.00
2019-06-26T07:57:50.881Z,92.60
2019-06-26T08:00:21.757Z,92.00
2019-06-26T08:02:51.242Z,91.80
2019-06-26T08:05:20.776Z,91.90
2019-06-26T08:07:50.270Z,91.80
2019-06-26T08:10:20.156Z,91.10
2019-06-26T08:12:49.621Z,91.00
2019-06-26T08:15:19.902Z,91.20
2019-06-26T08:18:00.043Z,91.10
2019-06-26T08:20:21.431Z,90.60
2019-06-26T08:22:50.901Z,90.80
2019-06-26T08:25:20.364Z,90.90
2019-06-26T08:27:50.387Z,89.50
2019-06-26T08:30:21.262Z,90.30
2019-06-26T08:32:50.699Z,90.50
2019-06-26T08:35:20.173Z,90.20
2019-06-26T08:37:49.628Z,88.90
2019-06-26T08:40:19.236Z,88.30
2019-06-26T08:42:48.752Z,89.30
2019-06-26T08:45:18.578Z,88.60
2019-06-26T08:47:48.111Z,86.60
2019-06-26T08:50:17.942Z,86.20
2019-06-26T08:52:47.450Z,84.70
2019-06-26T08:55:17.245Z,84.80
2019-06-26T08:57:49.029Z,85.10
2019-06-26T09:00:20.706Z,84.40
2019-06-26T09:02:50.160Z,84.00
2019-06-26T09:05:20.444Z,84.00
2019-06-26T09:07:49.984Z,82.50
2019-06-26T09:10:19.639Z,83.30
2019-06-26T09:12:49.925Z,82.70
2019-06-26T09:15:19.358Z,82.60
2019-06-26T09:17:48.848Z,83.30
2019-06-26T09:20:25.532Z,82.20
2019-06-26T09:22:55.013Z,81.10
2019-06-26T09:25:43.868Z,81.20
2019-06-26T09:28:13.331Z,80.40
2019-06-26T09:30:42.886Z,80.00
2019-06-26T09:33:12.322Z,78.30
2019-06-26T09:35:41.811Z,77.60
2019-06-26T09:38:11.235Z,76.30
2019-06-26T09:40:40.726Z,77.30
2019-06-26T09:43:10.179Z,77.90
2019-06-26T09:45:39.795Z,76.30
2019-06-26T09:48:09.464Z,76.70
2019-06-26T09:50:38.924Z,76.70
2019-06-26T09:53:08.474Z,76.00
2019-06-26T09:55:37.939Z,75.00
2019-06-26T09:58:07.369Z,75.20
2019-06-26T10:00:37.081Z,73.60
2019-06-26T10:03:06.987Z,74.60
2019-06-26T10:05:36.470Z,74.40
2019-06-26T10:08:05.906Z,75.30
2019-06-26T10:10:35.440Z,74.20
2019-06-26T10:13:04.869Z,73.40
2019-06-26T10:15:34.333Z,73.90
2019-06-26T10:18:03.962Z,74.10
2019-06-26T10:20:33.416Z,73.60
2019-06-26T10:23:02.850Z,72.80
2019-06-26T10:25:32.353Z,73.50
2019-06-26T10:28:02.503Z,72.30
2019-06-26T10:30:32.045Z,73.10
2019-06-26T10:33:01.596Z,72.90
2019-06-26T10:35:31.137Z,73.90
2019-06-26T10:38:00.611Z,73.50
2019-06-26T10:40:30.037Z,72.30
2019-06-26T10:42:59.502Z,71.70
2019-06-26T10:45:29.038Z,71.40
2019-06-26T10:47:58.642Z,72.10
2019-06-26T10:50:28.110Z,71.00
2019-06-26T10:52:57.546Z,71.00
2019-06-26T10:55:26.974Z,70.70
2019-06-26T10:57:56.445Z,69.70
2019-06-26T11:00:26.575Z,67.80
2019-06-26T11:02:56.129Z,67.40
2019-06-26T11:05:25.869Z,68.80
2019-06-26T11:07:55.365Z,67.70
2019-06-26T11:10:25.120Z,69.00
2019-06-26T11:12:54.587Z,67.90
2019-06-26T11:15:24.447Z,69.00
2019-06-26T11:17:54.538Z,66.70
2019-06-26T11:20:24.725Z,67.40
2019-06-26T11:22:54.233Z,67.00
2019-06-26T11:25:23.873Z,68.30
2019-06-26T11:27:53.359Z,68.60
2019-06-26T11:30:23.608Z,68.40
2019-06-26T11:32:53.139Z,68.70
2019-06-26T11:35:22.567Z,68.40
2019-06-26T11:37:52.038Z,68.80
2019-06-26T11:40:21.874Z,67.90
2019-06-26T11:42:51.425Z,69.40
2019-06-26T11:45:21.268Z,68.80
2019-06-26T11:47:51.001Z,67.80
2019-06-26T11:50:21.170Z,68.20
2019-06-26T11:52:50.667Z,67.70
2019-06-26T11:55:20.711Z,67.80
2019-06-26T11:57:50.986Z,67.50
2019-06-26T12:00:24.210Z,67.40
2019-06-26T12:02:53.638Z,68.60
2019-06-26T12:05:23.338Z,68.00
2019-06-26T12:07:52.983Z,68.20
2019-06-26T12:10:23.003Z,68.50
2019-06-26T12:12:52.509Z,67.50
2019-06-26T12:15:23.482Z,68.30
2019-06-26T12:17:53.188Z,68.10
2019-06-26T12:20:23.418Z,67.50
2019-06-26T12:22:52.994Z,67.30
2019-06-26T12:25:22.740Z,68.10
2019-06-26T12:27:52.169Z,68.40
2019-06-26T12:30:22.140Z,67.40
2019-06-26T12:33:02.402Z,67.40
2019-06-26T12:35:22.874Z,66.50
2019-06-26T12:37:52.356Z,66.40
2019-06-26T12:40:22.631Z,66.80
2019-06-26T12:42:55.472Z,66.20
2019-06-26T12:45:23.401Z,65.50
2019-06-26T12:47:52.980Z,65.00
2019-06-26T12:50:35.474Z,64.80
2019-06-26T12:52:57.005Z,63.50
2019-06-26T12:55:26.453Z,62.60
2019-06-26T12:58:11.574Z,63.10
2019-06-26T13:00:28.675Z,61.20
2019-06-26T13:02:58.392Z,62.60
2019-06-26T13:05:27.869Z,60.00
2019-06-26T13:07:57.686Z,60.00
2019-06-26T13:10:27.644Z,60.00
2019-06-26T13:12:57.120Z,59.50
2019-06-26T13:15:26.652Z,57.70
2019-06-26T13:17:56.160Z,56.80
2019-06-26T13:20:25.649Z,57.60
2019-06-26T13:22:55.080Z,57.70
2019-06-26T13:25:24.537Z,58.70
2019-06-26T13:27:54.295Z,58.20
2019-06-26T13:30:33.532Z,58.40
2019-06-26T13:33:03.003Z,59.00
2019-06-26T13:35:32.432Z,58.10
2019-06-26T13:38:21.317Z,57.00
2019-06-26T13:40:50.814Z,56.70
2019-06-26T13:43:20.259Z,57.70
2019-06-26T13:45:49.770Z,57.60
2019-06-26T13:48:19.276Z,58.10
2019-06-26T13:50:48.726Z,57.70
2019-06-26T13:53:18.246Z,57.70
2019-06-26T13:55:47.717Z,58.10
2019-06-26T13:58:17.177Z,57.90
2019-06-26T14:00:46.659Z,58.50
2019-06-26T14:03:16.113Z,57.80
2019-06-26T14:05:45.582Z,58.70
2019-06-26T14:08:15.039Z,58.20
2019-06-26T14:10:44.529Z,57.50
2019-06-26T14:13:13.990Z,57.30
2019-06-26T14:15:43.539Z,57.70
2019-06-26T14:18:12.994Z,57.50
2019-06-26T14:20:42.465Z,57.10
2019-06-26T14:23:11.918Z,58.00
2019-06-26T14:25:41.397Z,58.00
2019-06-26T14:28:10.859Z,57.80
2019-06-26T14:30:40.816Z,58.20
2019-06-26T14:33:10.247Z,58.40
2019-06-26T14:35:39.696Z,58.10
2019-06-26T14:38:09.164Z,58.10
2019-06-26T14:40:38.593Z,59.10
2019-06-26T14:43:08.062Z,58.80
2019-06-26T14:45:37.513Z,59.70
2019-06-26T14:48:06.996Z,59.90
2019-06-26T14:50:36.470Z,59.40
2019-06-26T14:53:06.032Z,60.00
2019-06-26T14:55:35.545Z,59.50
2019-06-26T14:58:05.030Z,59.80
2019-06-26T15:00:34.499Z,60.30
2019-06-26T15:03:04.345Z,60.00
2019-06-26T15:05:39.952Z,60.90
2019-06-26T15:08:09.406Z,61.10
2019-06-26T15:10:38.965Z,60.10
2019-06-26T15:13:08.432Z,60.00
2019-06-26T15:15:37.929Z,61.50
2019-06-26T15:18:07.394Z,61.20
2019-06-26T15:20:36.881Z,60.00
2019-06-26T15:23:06.336Z,59.10
2019-06-26T15:25:35.791Z,59.70
2019-06-26T15:28:05.345Z,59.30
2019-06-26T15:30:34.805Z,59.50
2019-06-26T15:33:04.320Z,59.60
2019-06-26T15:35:34.940Z,60.20
2019-06-26T15:38:05.117Z,59.50
2019-06-26T15:40:34.622Z,59.80
2019-06-26T15:43:04.259Z,59.90
2019-06-26T15:45:33.702Z,60.30
2019-06-26T15:48:03.157Z,60.80
2019-06-26T15:50:32.695Z,59.50
2019-06-26T15:53:02.153Z,59.60
2019-06-26T15:55:31.576Z,58.90
2019-06-26T15:58:01.064Z,58.10
2019-06-26T16:00:30.560Z,58.70
2019-06-26T16:03:00.027Z,58.20
2019-06-26T16:05:29.497Z,58.60
2019-06-26T16:07:58.951Z,59.20
2019-06-26T16:10:28.406Z,58.50
2019-06-26T16:12:57.903Z,59.40
2019-06-26T16:15:27.353Z,59.10
2019-06-26T16:17:58.451Z,59.00
2019-06-26T16:20:27.969Z,58.80
2019-06-26T16:22:57.434Z,58.60
2019-06-26T16:25:26.886Z,59.20
2019-06-26T16:28:05.396Z,58.20
2019-06-26T16:30:27.679Z,59.00
2019-06-26T16:32:57.173Z,59.30
2019-06-26T16:35:26.750Z,59.40
2019-06-26T16:37:56.210Z,59.00
2019-06-26T16:40:25.708Z,59.50
2019-06-26T16:42:55.354Z,59.00
2019-06-26T16:45:24.873Z,58.70
2019-06-26T16:47:54.796Z,59.10
2019-06-26T16:50:24.256Z,59.40
2019-06-26T16:52:53.742Z,59.70
2019-06-26T16:55:23.255Z,59.40
2019-06-26T16:57:52.696Z,59.70
2019-06-26T17:00:22.865Z,59.40
2019-06-26T17:02:52.424Z,59.10
2019-06-26T17:05:21.951Z,59.90
2019-06-26T17:07:51.507Z,59.30
2019-06-26T17:10:22.258Z,59.10
2019-06-26T17:12:51.749Z,58.30
2019-06-26T17:15:21.774Z,59.10
2019-06-26T17:17:51.231Z,58.80
2019-06-26T17:20:21.194Z,58.50
2019-06-26T17:23:04.574Z,58.20
2019-06-26T17:25:21.940Z,58.90
2019-06-26T17:27:51.390Z,59.10
2019-06-26T17:30:21.292Z,58.70
2019-06-26T17:32:50.914Z,59.50
2019-06-26T17:35:23.345Z,59.80
2019-06-26T17:37:52.980Z,59.50
2019-06-26T17:40:22.771Z,60.00
2019-06-26T17:42:52.266Z,59.90
2019-06-26T17:45:23.274Z,60.60
2019-06-26T17:47:52.840Z,61.10
2019-06-26T17:50:22.347Z,61.40
2019-06-26T17:52:51.808Z,62.50
2019-06-26T17:55:21.324Z,61.60
2019-06-26T17:57:50.835Z,62.00
2019-06-26T18:00:27.667Z,62.30
2019-06-26T18:02:57.143Z,63.30
2019-06-26T18:05:29.348Z,62.40
2019-06-26T18:07:58.809Z,63.00
2019-06-26T18:10:28.277Z,63.70
2019-06-26T18:12:57.733Z,63.30
2019-06-26T18:15:27.202Z,63.00
2019-06-26T18:17:56.645Z,63.90
2019-06-26T18:20:26.131Z,64.40
2019-06-26T18:23:06.688Z,65.00
2019-06-26T18:25:27.038Z,64.70
2019-06-26T18:27:56.506Z,65.10
2019-06-26T18:30:26.130Z,65.80
2019-06-26T18:32:55.621Z,66.20
2019-06-26T18:35:25.081Z,66.30
2019-06-26T18:37:54.557Z,66.60
2019-06-26T18:40:24.053Z,67.20
2019-06-26T18:42:53.512Z,67.80
2019-06-26T18:45:22.986Z,68.10
2019-06-26T18:47:52.509Z,68.70
2019-06-26T18:50:21.989Z,68.70
2019-06-26T18:52:51.431Z,69.10
2019-06-26T18:55:20.900Z,69.00
2019-06-26T18:57:50.356Z,69.80
2019-06-26T19:00:21.066Z,69.90
2019-06-26T19:02:50.519Z,70.60
2019-06-26T19:05:20.290Z,71.00
2019-06-26T19:07:49.782Z,71.80
2019-06-26T19:10:19.474Z,71.20
2019-06-26T19:12:49.012Z,72.00
2019-06-26T19:15:18.775Z,72.20
2019-06-26T19:17:48.281Z,72.10
2019-06-26T19:20:19.176Z,72.50
2019-06-26T19:22:48.596Z,73.30
2019-06-26T19:25:18.231Z,73.10
2019-06-26T19:27:47.686Z,73.60
2019-06-26T19:30:18.260Z,73.40
2019-06-26T19:32:47.795Z,74.10
2019-06-26T19:35:19.624Z,74.80
2019-06-26T19:37:48.681Z,74.40
2019-06-26T19:40:18.375Z,75.20
2019-06-26T19:42:47.903Z,75.30
2019-06-26T19:45:18.071Z,75.90
2019-06-26T19:47:47.634Z,75.80
2019-06-26T19:50:17.426Z,75.70
2019-06-26T19:52:46.895Z,76.10
2019-06-26T19:55:16.583Z,75.50
2019-06-26T19:57:46.159Z,77.00
2019-06-26T20:00:16.634Z,76.80
2019-06-26T20:02:46.145Z,77.30
2019-06-26T20:05:16.788Z,76.40
2019-06-26T20:07:46.318Z,77.60
2019-06-26T20:10:16.466Z,77.40
2019-06-26T20:12:47.478Z,77.10
2019-06-26T20:15:17.069Z,78.60
2019-06-26T20:17:46.541Z,78.90
2019-06-26T20:20:18.298Z,78.70
2019-06-26T20:22:47.752Z,79.30
2019-06-26T20:25:17.730Z,79.60
2019-06-26T20:27:47.331Z,79.60
2019-06-26T20:30:18.654Z,80.00
2019-06-26T20:32:48.157Z,79.80
2019-06-26T20:35:17.644Z,80.10
2019-06-26T20:37:47.082Z,79.80
2019-06-26T20:40:16.981Z,81.00
2019-06-26T20:42:46.471Z,80.10
2019-06-26T20:45:16.540Z,80.50
2019-06-26T20:47:46.028Z,80.60
2019-06-26T20:50:15.923Z,80.40
2019-06-26T20:52:45.428Z,80.70
2019-06-26T20:55:14.885Z,80.80
2019-06-26T20:57:44.542Z,81.20
2019-06-26T21:00:15.441Z,81.70
2019-06-26T21:02:44.886Z,82.00
2019-06-26T21:05:14.574Z,82.00
2019-06-26T21:07:44.064Z,82.20
2019-06-26T21:10:14.545Z,82.70
2019-06-26T21:12:44.020Z,82.10
2019-06-26T21:15:13.820Z,82.30
2019-06-26T21:17:43.321Z,82.70
2019-06-26T21:20:13.767Z,82.80
2019-06-26T21:23:02.577Z,83.20
2019-06-26T21:25:32.003Z,83.00
2019-06-26T21:28:01.488Z,83.00
2019-06-26T21:30:30.947Z,83.50
2019-06-26T21:33:00.453Z,83.40
2019-06-26T21:35:30.070Z,83.40
2019-06-26T21:37:59.627Z,83.80
2019-06-26T21:40:29.066Z,83.90
2019-06-26T21:42:58.590Z,84.30
2019-06-26T21:45:28.021Z,84.10
2019-06-26T21:47:57.477Z,84.40
2019-06-26T21:50:29.123Z,84.50
2019-06-26T21:52:58.183Z,85.00
2019-06-26T21:55:34.201Z,85.10
2019-06-26T21:58:04.318Z,85.10
2019-06-26T22:00:34.616Z,85.00
2019-06-26T22:03:04.457Z,85.00
2019-06-26T22:05:34.370Z,85.10
2019-06-26T22:08:03.824Z,85.40
2019-06-26T22:10:33.382Z,85.60
2019-06-26T22:13:02.916Z,86.00
2019-06-26T22:15:32.458Z,85.80
2019-06-26T22:18:01.954Z,86.10
2019-06-26T22:20:31.511Z,86.20
2019-06-26T22:23:00.930Z,86.50
2019-06-26T22:25:30.481Z,86.80
2019-06-26T22:27:59.988Z,87.10
2019-06-26T22:30:30.910Z,87.30
2019-06-26T22:33:00.426Z,87.60
2019-06-26T22:35:49.323Z,87.20
2019-06-26T22:38:18.836Z,87.60
2019-06-26T22:40:48.365Z,87.90
2019-06-26T22:43:17.914Z,88.00
2019-06-26T22:45:47.449Z,88.10
2019-06-26T22:48:17.091Z,88.20
2019-06-26T22:51:05.966Z,88.40
2019-06-26T22:53:35.524Z,88.50
2019-06-26T22:56:08.073Z,88.90
2019-06-26T22:58:36.408Z,88.50
2019-06-26T23:01:05.965Z,88.70
2019-06-26T23:03:35.401Z,88.90
2019-06-26T23:06:04.969Z,89.20
2019-06-26T23:08:34.648Z,89.80
2019-06-26T23:11:04.188Z,89.80
2019-06-26T23:13:33.873Z,89.30
2019-06-26T23:16:03.342Z,90.00
2019-06-26T23:18:32.831Z,90.00
2019-06-26T23:21:02.288Z,90.10
2019-06-26T23:23:31.756Z,90.20
2019-06-26T23:26:01.294Z,90.10
2019-06-26T23:28:30.836Z,90.40
2019-06-26T23:31:00.300Z,90.50
2019-06-26T23:33:29.792Z,90.50
2019-06-26T23:35:59.246Z,90.60
2019-06-26T23:38:28.732Z,90.70
2019-06-26T23:40:58.190Z,90.80
2019-06-26T23:43:27.634Z,90.80
2019-06-26T23:45:57.111Z,91.00
2019-06-26T23:48:26.764Z,90.90
2019-06-26T23:50:56.271Z,90.90
2019-06-26T23:53:25.769Z,90.80
2019-06-26T23:55:55.250Z,90.90
2019-06-26T23:58:24.815Z,91.00
